Time;durP1;ratioP1;P1;durP2;ratioP2;P2;SDS_P1;SDS_P2;PMS_P1;PMS_P2;Temp;Humidity;BMP_temperature;BMP_pressure;BME280_temperature;BME280_humidity;BME280_pressure;Samples;Min_cycle;Max_cycle;Signal;HPM_P1;HPM_P2
2022/10/05 00:02:35;;;;;;;71.70;34.53;;;4.30;99.90;;;;;;4362978;28;657386;-70
2022/10/05 00:05:28;;;;;;;80.17;35.70;;;4.30;99.90;;;;;;4373899;28;657452;-70
2022/10/05 00:08:17;;;;;;;69.00;31.20;;;4.20;99.90;;;;;;4331998;28;657532;-70
2022/10/05 00:11:06;;;;;;;52.30;27.50;;;4.30;99.90;;;;;;4367695;28;657556;-70
2022/10/05 00:13:53;;;;;;;50.83;24.47;;;4.30;99.90;;;;;;4343463;28;657764;-70
2022/10/05 00:16:42;;;;;;;51.37;24.33;;;4.40;99.90;;;;;;4352014;28;657662;-71
2022/10/05 00:19:31;;;;;;;48.20;22.47;;;4.40;99.90;;;;;;4369948;28;657334;-70
2022/10/05 00:22:19;;;;;;;53.93;24.60;;;4.40;99.90;;;;;;4349121;28;658208;-70
2022/10/05 00:25:12;;;;;;;49.03;25.00;;;4.50;99.90;;;;;;4347116;28;657505;-70
2022/10/05 00:28:00;;;;;;;95.37;41.90;;;4.40;99.90;;;;;;4348706;28;657837;-71
2022/10/05 00:30:47;;;;;;;73.57;32.87;;;4.40;99.90;;;;;;4345014;28;658161;-71
2022/10/05 00:33:35;;;;;;;109.17;46.57;;;4.40;99.90;;;;;;4372182;28;657785;-71
2022/10/05 00:36:24;;;;;;;115.32;47.72;;;4.40;99.90;;;;;;4342208;28;660249;-71
2022/10/05 00:39:12;;;;;;;126.80;48.20;;;4.40;99.90;;;;;;4347637;28;659404;-71
2022/10/05 00:42:17;;;;;;;76.30;32.37;;;4.40;99.90;;;;;;4368473;28;658268;-71
2022/10/05 00:45:06;;;;;;;73.90;28.10;;;4.40;99.90;;;;;;4350937;28;657664;-71
2022/10/05 00:47:56;;;;;;;71.13;30.00;;;4.40;99.90;;;;;;4354111;28;658301;-71
2022/10/05 00:50:55;;;;;;;75.60;29.60;;;4.40;99.90;;;;;;4352959;28;657934;-71
2022/10/05 00:53:44;;;;;;;166.00;47.40;;;4.40;99.90;;;;;;4324071;28;658492;-71
2022/10/05 00:56:40;;;;;;;161.33;49.17;;;4.40;99.90;;;;;;4358454;28;659108;-71
2022/10/05 00:59:33;;;;;;;215.33;58.50;;;4.40;99.90;;;;;;4332042;28;659259;-70
2022/10/05 01:02:23;;;;;;;373.73;93.13;;;4.40;99.90;;;;;;4335023;28;660375;-70
2022/10/05 01:05:12;;;;;;;155.87;46.00;;;4.40;99.90;;;;;;4352045;28;658817;-71
2022/10/05 01:08:04;;;;;;;124.67;38.23;;;4.40;99.90;;;;;;4375168;28;658692;-71
2022/10/05 01:10:55;;;;;;;112.43;37.57;;;4.40;99.90;;;;;;4330812;28;659100;-70
2022/10/05 01:13:47;;;;;;;83.33;28.80;;;4.30;99.90;;;;;;4356801;28;658841;-71
2022/10/05 01:16:39;;;;;;;71.40;27.37;;;4.40;99.90;;;;;;4356781;28;658043;-71
2022/10/05 01:19:39;;;;;;;87.50;29.17;;;4.40;99.90;;;;;;4359868;28;657602;-71
2022/10/05 01:22:35;;;;;;;258.77;51.87;;;4.40;99.90;;;;;;4332284;28;658521;-70
2022/10/05 01:25:26;;;;;;;159.57;36.13;;;4.30;99.90;;;;;;4353928;28;658648;-71
2022/10/05 01:28:16;;;;;;;322.07;60.57;;;4.30;99.90;;;;;;4348711;28;659265;-71
2022/10/05 01:31:06;;;;;;;353.93;59.60;;;4.30;99.90;;;;;;4346063;28;659613;-71
2022/10/05 01:33:58;;;;;;;812.73;125.03;;;4.30;99.90;;;;;;4342257;28;659183;-71
2022/10/05 01:36:48;;;;;;;227.27;47.57;;;4.30;99.90;;;;;;4332250;28;659826;-71
2022/10/05 01:39:43;;;;;;;342.53;62.53;;;4.30;99.90;;;;;;4345973;28;658918;-71
2022/10/05 01:42:39;;;;;;;167.13;46.70;;;4.20;99.90;;;;;;4329005;28;658756;-71
2022/10/05 01:45:30;;;;;;;203.20;42.77;;;4.20;99.90;;;;;;4349708;28;658779;-71
2022/10/05 01:48:20;;;;;;;139.02;34.60;;;4.20;99.90;;;;;;4349874;28;659900;-71
2022/10/05 01:51:12;;;;;;;102.27;26.83;;;4.20;99.90;;;;;;4349480;28;659830;-71
2022/10/05 01:54:03;;;;;;;76.97;24.50;;;4.20;99.90;;;;;;4351817;28;658415;-71
2022/10/05 01:56:55;;;;;;;73.67;23.37;;;4.20;99.90;;;;;;4323084;28;658172;-71
2022/10/05 01:59:50;;;;;;;65.77;22.87;;;4.20;99.90;;;;;;4350151;28;658985;-71
2022/10/05 02:02:41;;;;;;;80.73;28.07;;;4.20;99.90;;;;;;4325457;28;657609;-71
2022/10/05 02:05:30;;;;;;;50.78;23.23;;;4.10;99.90;;;;;;4347488;28;658135;-71
2022/10/05 02:08:19;;;;;;;48.70;22.00;;;4.10;99.90;;;;;;4348310;28;658263;-71
2022/10/05 02:11:08;;;;;;;42.83;20.43;;;4.10;99.90;;;;;;4352713;28;657443;-71
2022/10/05 02:13:57;;;;;;;65.33;24.87;;;4.10;99.90;;;;;;4358361;28;658243;-71
2022/10/05 02:16:45;;;;;;;49.73;23.00;;;4.10;99.90;;;;;;4371986;28;657792;-71
2022/10/05 02:19:35;;;;;;;50.40;22.20;;;4.10;99.90;;;;;;4348416;28;657764;-71
2022/10/05 02:22:23;;;;;;;87.87;27.90;;;4.10;99.90;;;;;;4356236;28;657795;-71
2022/10/05 02:25:13;;;;;;;130.07;53.13;;;4.00;99.90;;;;;;4352736;28;657353;-71
2022/10/05 02:28:02;;;;;;;130.07;54.07;;;4.00;99.90;;;;;;4350543;28;658423;-71
2022/10/05 02:30:51;;;;;;;132.27;56.63;;;4.10;99.90;;;;;;4372370;28;658169;-71
2022/10/05 02:33:39;;;;;;;83.30;39.73;;;4.10;99.90;;;;;;4351901;28;659127;-71
2022/10/05 02:36:31;;;;;;;95.53;44.10;;;4.10;99.90;;;;;;4353134;28;657471;-71
2022/10/05 02:39:20;;;;;;;77.47;35.93;;;4.10;99.90;;;;;;4350128;28;658384;-70
2022/10/05 02:42:09;;;;;;;66.20;30.77;;;4.10;99.90;;;;;;4352446;28;658300;-71
2022/10/05 02:45:00;;;;;;;54.08;24.42;;;4.10;99.90;;;;;;4350888;28;657974;-70
2022/10/05 02:47:50;;;;;;;41.03;20.10;;;4.10;99.90;;;;;;4352736;28;658043;-71
2022/10/05 02:50:40;;;;;;;45.13;19.90;;;4.00;99.90;;;;;;4349142;28;658105;-71
2022/10/05 02:53:33;;;;;;;49.78;24.10;;;4.10;99.90;;;;;;4350381;28;657575;-71
2022/10/05 02:56:24;;;;;;;59.43;21.00;;;4.00;99.90;;;;;;4331499;28;658263;-70
2022/10/05 02:59:14;;;;;;;51.13;19.93;;;4.00;99.90;;;;;;4350837;28;657622;-71
2022/10/05 03:02:04;;;;;;;57.13;23.20;;;4.00;99.90;;;;;;4347101;28;657435;-71
2022/10/05 03:04:57;;;;;;;64.63;25.80;;;4.00;99.90;;;;;;4353616;28;657814;-71
2022/10/05 03:07:50;;;;;;;41.67;20.13;;;3.90;99.90;;;;;;4347219;28;657394;-71
2022/10/05 03:10:43;;;;;;;37.88;17.95;;;3.80;99.90;;;;;;4324363;28;658176;-71
2022/10/05 03:13:34;;;;;;;41.63;18.00;;;3.90;99.90;;;;;;4335726;28;657601;-71
2022/10/05 03:16:27;;;;;;;40.73;20.23;;;3.90;99.90;;;;;;4352862;28;658268;-71
2022/10/05 03:19:25;;;;;;;48.97;22.73;;;3.90;99.90;;;;;;4329861;28;658343;-71
2022/10/05 03:22:16;;;;;;;44.30;20.47;;;3.90;99.90;;;;;;4324458;28;657404;-71
2022/10/05 03:25:22;;;;;;;48.40;22.30;;;3.90;99.90;;;;;;4346407;28;658398;-71
2022/10/05 03:28:14;;;;;;;47.00;19.67;;;4.00;99.90;;;;;;4347340;28;657793;-71
2022/10/05 03:31:03;;;;;;;43.90;19.33;;;4.00;99.90;;;;;;4321335;28;658881;-71
2022/10/05 03:33:53;;;;;;;40.30;17.27;;;4.00;99.90;;;;;;4350254;28;658508;-71
2022/10/05 03:36:44;;;;;;;35.63;16.02;;;4.10;99.90;;;;;;4354611;28;657422;-71
2022/10/05 03:39:33;;;;;;;38.47;18.77;;;4.10;99.90;;;;;;4353863;28;657751;-71
2022/10/05 03:42:23;;;;;;;168.03;59.47;;;4.00;99.90;;;;;;4352499;28;657775;-71
2022/10/05 03:45:18;;;;;;;334.03;91.60;;;4.00;99.90;;;;;;4350635;28;658579;-71
2022/10/05 03:48:08;;;;;;;220.35;71.55;;;4.00;99.90;;;;;;4327641;28;658469;-71
2022/10/05 03:50:59;;;;;;;137.27;43.07;;;3.90;99.90;;;;;;4361127;28;658624;-71
2022/10/05 03:53:49;;;;;;;59.43;22.87;;;3.90;99.90;;;;;;4350054;28;659294;-71
2022/10/05 03:56:38;;;;;;;91.77;38.27;;;3.90;99.90;;;;;;4351285;28;657981;-71
2022/10/05 03:59:26;;;;;;;65.60;28.07;;;3.90;99.90;;;;;;4360129;28;657490;-71
2022/10/05 04:02:18;;;;;;;62.37;23.17;;;3.90;99.90;;;;;;4369717;28;658850;-71
2022/10/05 04:05:11;;;;;;;34.40;14.83;;;3.90;99.90;;;;;;4331827;28;657762;-71
2022/10/05 04:08:00;;;;;;;29.33;14.53;;;3.90;99.90;;;;;;4350067;28;658229;-71
2022/10/05 04:10:48;;;;;;;34.77;17.27;;;3.80;99.90;;;;;;4344288;28;658521;-71
2022/10/05 04:13:37;;;;;;;44.27;20.07;;;3.80;99.90;;;;;;4353432;28;657511;-72
2022/10/05 04:16:26;;;;;;;43.92;21.20;;;3.90;99.90;;;;;;4371832;28;658024;-71
2022/10/05 04:19:17;;;;;;;36.47;20.40;;;4.00;99.90;;;;;;4352624;28;657957;-71
2022/10/05 04:22:07;;;;;;;45.37;21.50;;;4.00;99.90;;;;;;4347717;28;657813;-71
2022/10/05 04:24:56;;;;;;;34.97;18.63;;;4.00;99.90;;;;;;4349454;28;657516;-71
2022/10/05 04:27:45;;;;;;;31.90;15.90;;;3.90;99.90;;;;;;4348112;28;658342;-71
2022/10/05 04:30:32;;;;;;;105.23;33.73;;;3.90;99.90;;;;;;4352909;28;657922;-71
2022/10/05 04:33:20;;;;;;;61.10;26.33;;;3.90;99.90;;;;;;4373149;28;658560;-71
2022/10/05 04:36:16;;;;;;;109.73;34.13;;;3.90;99.90;;;;;;4348426;28;658678;-71
2022/10/05 04:39:09;;;;;;;88.07;29.00;;;3.80;99.90;;;;;;4346987;28;659226;-72
2022/10/05 04:42:03;;;;;;;69.80;25.57;;;3.90;99.90;;;;;;4349926;28;657454;-71
2022/10/05 04:45:01;;;;;;;39.97;15.50;;;3.90;99.90;;;;;;4358314;28;657526;-72
2022/10/05 04:48:29;;;;;;;30.67;12.10;;;3.90;99.90;;;;;;4349076;28;658246;-71
2022/10/05 04:51:28;;;;;;;26.87;11.17;;;3.90;99.90;;;;;;4319015;28;658466;-72
2022/10/05 04:54:20;;;;;;;52.40;21.50;;;3.90;99.90;;;;;;4330339;28;657680;-71
2022/10/05 04:57:09;;;;;;;52.30;20.80;;;4.00;99.90;;;;;;4347029;28;659153;-72
2022/10/05 05:00:09;;;;;;;53.00;20.27;;;4.00;99.90;;;;;;4349773;28;657486;-72
2022/10/05 05:03:12;;;;;;;50.10;19.67;;;4.10;99.90;;;;;;4351087;28;657728;-72
2022/10/05 05:06:04;;;;;;;45.27;15.30;;;4.20;99.90;;;;;;4348288;28;657458;-72
2022/10/05 05:09:13;;;;;;;34.83;13.60;;;4.30;99.90;;;;;;4350376;28;657878;-71
2022/10/05 05:12:09;;;;;;;29.90;12.87;;;4.40;99.90;;;;;;4338203;28;657908;-72
2022/10/05 05:15:16;;;;;;;78.77;33.93;;;4.40;99.90;;;;;;4320080;28;658926;-72
2022/10/05 05:18:28;;;;;;;146.77;60.87;;;4.50;99.90;;;;;;4342139;28;657910;-72
2022/10/05 05:21:21;;;;;;;160.27;72.30;;;4.60;99.90;;;;;;4309701;28;658341;-72
2022/10/05 05:24:11;;;;;;;74.93;36.03;;;4.70;99.90;;;;;;4346229;28;659381;-72
2022/10/05 05:27:12;;;;;;;62.38;30.48;;;4.70;99.90;;;;;;4339573;28;658433;-71
2022/10/05 05:30:02;;;;;;;51.13;22.37;;;4.80;99.90;;;;;;4344453;28;657615;-72
2022/10/05 05:33:00;;;;;;;36.80;16.57;;;4.90;99.90;;;;;;4369268;28;657666;-72
2022/10/05 05:36:03;;;;;;;133.00;58.73;;;4.90;99.90;;;;;;4322549;28;657605;-72
2022/10/05 05:38:55;;;;;;;95.33;39.40;;;5.10;99.90;;;;;;4327187;28;658530;-72
2022/10/05 05:41:45;;;;;;;49.27;25.50;;;5.10;99.90;;;;;;4343871;28;657938;-71
2022/10/05 05:44:35;;;;;;;58.70;22.67;;;5.30;99.90;;;;;;4348591;28;658463;-72
2022/10/05 05:47:25;;;;;;;51.17;25.43;;;5.40;99.90;;;;;;4346940;28;658061;-72
2022/10/05 05:50:24;;;;;;;67.27;27.57;;;5.50;99.90;;;;;;4347327;28;658638;-72
2022/10/05 05:53:14;;;;;;;57.17;27.70;;;5.50;99.90;;;;;;4351985;28;658406;-69
2022/10/05 05:56:06;;;;;;;63.10;28.00;;;5.60;99.90;;;;;;4354842;28;657713;-71
2022/10/05 05:58:54;;;;;;;54.40;21.37;;;5.60;99.90;;;;;;4346347;28;658227;-69
2022/10/05 06:01:45;;;;;;;44.17;24.67;;;5.80;99.90;;;;;;4351686;28;657655;-70
2022/10/05 06:04:34;;;;;;;39.03;20.80;;;5.90;99.90;;;;;;4346658;28;658516;-69
2022/10/05 06:07:24;;;;;;;63.43;24.03;;;6.00;99.90;;;;;;4350392;28;658626;-70
2022/10/05 06:10:17;;;;;;;31.63;14.15;;;6.10;99.90;;;;;;4351853;28;657407;-70
2022/10/05 06:13:06;;;;;;;28.87;15.97;;;6.30;99.90;;;;;;4342135;28;657372;-71
2022/10/05 06:15:55;;;;;;;49.57;21.90;;;6.50;99.90;;;;;;4352440;28;657985;-71
2022/10/05 06:18:46;;;;;;;39.00;20.97;;;6.80;99.90;;;;;;4343021;28;658181;-70
2022/10/05 06:21:35;;;;;;;43.53;19.77;;;7.00;99.90;;;;;;4349484;28;657721;-70
2022/10/05 06:24:25;;;;;;;66.03;25.50;;;7.30;99.90;;;;;;4347227;28;658446;-70
2022/10/05 06:27:24;;;;;;;87.87;33.57;;;7.50;99.90;;;;;;4347169;28;658506;-70
2022/10/05 06:30:12;;;;;;;97.87;35.50;;;7.60;99.90;;;;;;4351482;28;657361;-71
2022/10/05 06:33:05;;;;;;;29.40;13.73;;;7.60;99.90;;;;;;4367410;28;657333;-70
2022/10/05 06:36:00;;;;;;;29.07;12.83;;;7.60;99.90;;;;;;4342940;28;657975;-71
2022/10/05 06:39:14;;;;;;;27.73;13.10;;;7.80;99.90;;;;;;4321798;28;657720;-70
2022/10/05 06:42:52;;;;;;;46.63;21.33;;;7.90;99.90;;;;;;4350919;28;657497;-70
2022/10/05 06:45:48;;;;;;;52.30;23.23;;;8.00;99.90;;;;;;4335141;28;657783;-70
2022/10/05 06:48:43;;;;;;;49.47;25.70;;;8.30;99.90;;;;;;4351467;28;657396;-70
2022/10/05 06:51:34;;;;;;;68.90;31.57;;;8.60;99.90;;;;;;4325537;28;657583;-70
2022/10/05 06:54:35;;;;;;;43.47;20.50;;;8.80;99.90;;;;;;4349896;28;658446;-70
2022/10/05 06:57:38;;;;;;;37.10;17.00;;;9.00;99.90;;;;;;4322962;28;659483;-70
2022/10/05 07:00:27;;;;;;;31.53;19.53;;;9.10;99.90;;;;;;4329497;28;657700;-71
2022/10/05 07:03:18;;;;;;;24.90;13.68;;;9.40;99.90;;;;;;4368042;28;657724;-70
2022/10/05 07:06:11;;;;;;;28.00;13.43;;;9.70;99.90;;;;;;4330974;28;657821;-70
2022/10/05 07:09:16;;;;;;;21.77;11.60;;;9.80;99.90;;;;;;4340448;28;657456;-69
2022/10/05 07:12:23;;;;;;;19.70;10.67;;;10.00;99.90;;;;;;4338626;28;657672;-70
2022/10/05 07:15:33;;;;;;;16.00;8.52;;;10.40;99.90;;;;;;4325355;28;658419;-70
2022/10/05 07:18:34;;;;;;;19.10;7.77;;;10.70;99.90;;;;;;4327286;28;657794;-70
2022/10/05 07:21:27;;;;;;;13.17;7.20;;;10.90;99.90;;;;;;4344166;28;659146;-69
2022/10/05 07:24:26;;;;;;;12.93;7.47;;;11.20;99.90;;;;;;4342505;28;657419;-69
2022/10/05 07:27:15;;;;;;;14.43;7.17;;;11.30;99.90;;;;;;4343562;28;658647;-69
2022/10/05 07:30:03;;;;;;;12.80;6.20;;;11.50;99.90;;;;;;4353228;28;658429;-70
2022/10/05 07:32:58;;;;;;;12.70;6.50;;;11.70;99.90;;;;;;4344234;28;657694;-70
2022/10/05 07:38:57;;;;;;;11.63;7.17;;;12.10;99.90;;;;;;4348739;28;657755;-70
2022/10/05 07:41:49;;;;;;;10.80;6.13;;;12.50;99.90;;;;;;4345599;28;658349;-70
2022/10/05 07:44:38;;;;;;;13.83;6.00;;;12.50;99.90;;;;;;4325516;28;658467;-70
2022/10/05 07:47:29;;;;;;;15.73;6.50;;;12.60;99.90;;;;;;4348881;28;657664;-70
2022/10/05 07:50:19;;;;;;;18.67;7.87;;;12.50;99.90;;;;;;4350173;28;658050;-69
2022/10/05 07:53:11;;;;;;;13.93;6.93;;;12.80;99.90;;;;;;4343938;28;657369;-71
2022/10/05 07:56:00;;;;;;;14.87;7.27;;;13.10;99.90;;;;;;4341744;28;658108;-70
2022/10/05 07:58:51;;;;;;;19.13;7.00;;;13.30;99.90;;;;;;4338183;28;659023;-70
2022/10/05 08:01:40;;;;;;;13.30;7.00;;;14.00;99.90;;;;;;4346352;28;658604;-71
2022/10/05 08:04:30;;;;;;;12.83;5.50;;;14.20;99.90;;;;;;4339612;28;658347;-70
2022/10/05 08:07:17;;;;;;;8.13;5.30;;;14.30;99.90;;;;;;4342922;28;658324;-71
2022/10/05 08:10:14;;;;;;;8.03;4.33;;;14.70;99.90;;;;;;4365255;28;656257;-70
2022/10/05 08:13:07;;;;;;;13.50;5.50;;;14.40;99.90;;;;;;4347869;28;656861;-71
2022/10/05 08:15:57;;;;;;;12.97;5.47;;;14.70;99.90;;;;;;4342189;28;657450;-71
2022/10/05 08:18:50;;;;;;;11.40;5.47;;;14.70;99.90;;;;;;4348311;28;657185;-71
2022/10/05 08:21:39;;;;;;;18.90;6.07;;;14.80;99.90;;;;;;4321234;28;658043;-71
2022/10/05 08:24:34;;;;;;;10.17;6.27;;;15.00;99.90;;;;;;4351853;28;658037;-72
2022/10/05 08:27:24;;;;;;;11.70;6.27;;;15.50;99.90;;;;;;4349305;28;658180;-71
2022/10/05 08:30:11;;;;;;;11.67;5.50;;;15.90;99.90;;;;;;4352140;28;657431;-72
2022/10/05 08:33:05;;;;;;;7.47;3.63;;;16.20;99.90;;;;;;4371070;28;658123;-71
2022/10/05 08:35:59;;;;;;;6.57;3.70;;;15.60;99.90;;;;;;4322741;28;658122;-72
2022/10/05 08:38:46;;;;;;;10.50;3.60;;;15.80;99.90;;;;;;4348099;28;657073;-72
2022/10/05 08:42:19;;;;;;;6.93;3.80;;;15.10;99.90;;;;;;4367428;28;658889;-71
2022/10/05 08:45:26;;;;;;;7.30;4.00;;;15.40;99.90;;;;;;4347694;28;656606;-71
2022/10/05 08:48:33;;;;;;;8.47;3.67;;;15.50;99.90;;;;;;4340772;28;656728;-71
2022/10/05 08:51:39;;;;;;;7.77;4.03;;;15.30;99.90;;;;;;4327849;28;655940;-72
2022/10/05 08:54:37;;;;;;;7.97;3.47;;;15.10;99.90;;;;;;4326106;28;656919;-71
2022/10/05 08:57:49;;;;;;;9.50;4.10;;;15.10;99.90;;;;;;4348885;28;656569;-71
2022/10/05 09:00:39;;;;;;;5.73;3.97;;;15.10;99.90;;;;;;4350572;28;657584;-71
2022/10/05 09:03:48;;;;;;;12.17;5.30;;;15.00;99.90;;;;;;4346861;28;656850;-72
2022/10/05 09:07:09;;;;;;;8.03;4.23;;;15.10;99.90;;;;;;4328422;28;658125;-72
2022/10/05 09:10:20;;;;;;;9.50;4.77;;;15.00;99.90;;;;;;4355031;28;657293;-71
2022/10/05 09:13:19;;;;;;;11.53;4.47;;;15.30;99.90;;;;;;4327117;28;656897;-72
2022/10/05 09:16:35;;;;;;;8.90;4.07;;;15.00;99.90;;;;;;4351237;28;658278;-72
2022/10/05 09:19:47;;;;;;;7.43;3.67;;;15.10;99.90;;;;;;4325764;28;657264;-72
2022/10/05 09:22:37;;;;;;;7.80;3.73;;;15.60;99.90;;;;;;4366643;28;656365;-72
2022/10/05 09:25:32;;;;;;;9.73;4.43;;;15.30;99.90;;;;;;4370399;28;656770;-72
2022/10/05 09:28:25;;;;;;;14.03;4.10;;;15.30;99.90;;;;;;4352496;28;656332;-72
2022/10/05 09:31:21;;;;;;;6.10;3.93;;;15.40;99.90;;;;;;4326491;28;658700;-72
2022/10/05 09:34:45;;;;;;;9.37;4.17;;;15.50;99.90;;;;;;4348975;28;656345;-72
2022/10/05 09:38:03;;;;;;;8.27;3.97;;;15.80;99.90;;;;;;4343960;28;657272;-71
2022/10/05 09:41:18;;;;;;;8.70;4.27;;;15.30;99.90;;;;;;4305950;28;656820;-72
2022/10/05 09:44:31;;;;;;;9.23;4.43;;;15.00;99.90;;;;;;4332898;28;656508;-72
2022/10/05 09:47:45;;;;;;;7.73;3.90;;;15.00;99.90;;;;;;4350120;28;657276;-71
2022/10/05 09:50:59;;;;;;;8.37;4.57;;;15.40;99.90;;;;;;4328347;28;657332;-71
2022/10/05 09:54:16;;;;;;;10.43;4.93;;;15.50;99.90;;;;;;4347721;28;656345;-72
2022/10/05 09:57:29;;;;;;;11.57;4.30;;;15.80;99.90;;;;;;4345914;28;658191;-72
2022/10/05 10:00:25;;;;;;;9.57;4.93;;;16.00;99.90;;;;;;4329622;28;657575;-71
2022/10/05 10:03:23;;;;;;;10.67;4.87;;;16.30;99.90;;;;;;4329317;28;656750;-71
2022/10/05 10:06:24;;;;;;;14.47;4.50;;;16.50;99.90;;;;;;4329244;28;658859;-72
2022/10/05 10:09:26;;;;;;;13.00;4.53;;;16.60;99.90;;;;;;4351378;28;657476;-71
2022/10/05 10:12:28;;;;;;;10.37;4.50;;;16.20;99.90;;;;;;4348511;28;657939;-71
2022/10/05 10:15:34;;;;;;;8.30;4.80;;;16.00;99.90;;;;;;4325729;28;657401;-71
2022/10/05 10:19:04;;;;;;;10.57;4.37;;;15.60;99.90;;;;;;4354080;28;657619;-70
2022/10/05 10:22:10;;;;;;;10.97;4.47;;;16.00;99.90;;;;;;4291180;28;657790;-72
2022/10/05 10:25:11;;;;;;;10.17;4.17;;;16.60;99.90;;;;;;4324721;28;657774;-71
2022/10/05 10:28:06;;;;;;;8.10;4.53;;;16.80;99.90;;;;;;4350375;28;658144;-71
2022/10/05 10:31:21;;;;;;;9.57;3.83;;;16.70;99.90;;;;;;4347806;28;657082;-72
2022/10/05 10:34:27;;;;;;;8.93;4.17;;;17.20;99.90;;;;;;4347736;28;657347;-72
2022/10/05 10:37:40;;;;;;;8.87;4.70;;;17.30;99.90;;;;;;4347990;28;656805;-71
2022/10/05 10:40:33;;;;;;;9.67;4.70;;;17.40;99.90;;;;;;4341426;28;656375;-72
2022/10/05 10:43:40;;;;;;;6.37;3.93;;;17.30;99.90;;;;;;4329104;28;656605;-72
2022/10/05 10:46:32;;;;;;;8.90;4.90;;;17.60;99.90;;;;;;4348124;28;656293;-73
2022/10/05 10:49:25;;;;;;;9.23;3.67;;;17.30;99.90;;;;;;4342248;28;656716;-73
2022/10/05 10:52:20;;;;;;;9.47;4.70;;;17.10;99.90;;;;;;4347219;28;656742;-71
2022/10/05 10:55:25;;;;;;;8.77;4.87;;;17.40;99.90;;;;;;4355150;28;657023;-71
2022/10/05 10:58:34;;;;;;;9.37;4.37;;;17.40;99.90;;;;;;4326274;28;657829;-74
2022/10/05 11:01:29;;;;;;;10.33;4.40;;;17.20;99.90;;;;;;4348607;28;656777;-73
2022/10/05 11:04:31;;;;;;;11.40;4.53;;;17.50;99.90;;;;;;4348839;28;657398;-72
2022/10/05 11:07:51;;;;;;;12.37;4.60;;;17.40;99.90;;;;;;4346855;28;658385;-73
2022/10/05 11:10:57;;;;;;;14.13;5.33;;;16.70;99.90;;;;;;4337989;28;658210;-73
2022/10/05 11:14:02;;;;;;;8.27;3.97;;;16.70;99.90;;;;;;4343999;28;658075;-72
2022/10/05 11:17:18;;;;;;;10.43;4.60;;;16.80;99.90;;;;;;4348041;28;656874;-73
2022/10/05 11:20:21;;;;;;;13.07;4.63;;;16.90;99.90;;;;;;4336431;28;658217;-73
2022/10/05 11:23:23;;;;;;;10.40;4.77;;;16.80;99.90;;;;;;4342344;28;658636;-73
2022/10/05 11:26:21;;;;;;;9.43;3.97;;;17.10;99.90;;;;;;4324685;28;657727;-73
2022/10/05 11:29:28;;;;;;;5.97;3.67;;;17.70;99.90;;;;;;4333489;28;656737;-72
2022/10/05 11:32:24;;;;;;;8.13;4.07;;;17.50;99.90;;;;;;4322847;28;656621;-73
2022/10/05 11:35:57;;;;;;;7.87;4.00;;;17.20;99.90;;;;;;4347021;28;656337;-72
2022/10/05 11:38:56;;;;;;;12.53;4.53;;;17.30;99.90;;;;;;4323455;28;656482;-74
2022/10/05 11:42:13;;;;;;;11.37;4.20;;;17.40;99.90;;;;;;4340328;28;657986;-73
2022/10/05 11:45:35;;;;;;;10.63;4.70;;;17.10;99.90;;;;;;4288793;28;658150;-73
2022/10/05 11:48:29;;;;;;;10.80;4.80;;;17.30;99.90;;;;;;4348138;28;657381;-73
2022/10/05 11:51:38;;;;;;;9.97;4.20;;;17.50;99.90;;;;;;4349286;28;657460;-72
2022/10/05 11:54:43;;;;;;;11.17;4.60;;;17.10;99.90;;;;;;4324079;28;656403;-72
2022/10/05 11:57:33;;;;;;;15.67;4.67;;;17.20;99.90;;;;;;4321059;28;657858;-73
2022/10/05 12:00:21;;;;;;;9.93;3.97;;;17.20;99.90;;;;;;4348000;28;658309;-73
2022/10/05 12:03:36;;;;;;;8.73;4.20;;;17.50;99.90;;;;;;4371038;28;657353;-72
2022/10/05 12:06:40;;;;;;;8.37;4.13;;;17.20;99.90;;;;;;4345156;28;656711;-72
2022/10/05 12:09:37;;;;;;;7.73;3.67;;;17.30;99.90;;;;;;4327554;28;656848;-72
2022/10/05 12:12:26;;;;;;;7.43;3.07;;;17.60;99.90;;;;;;4346396;28;656202;-71
2022/10/05 12:15:18;;;;;;;7.13;3.33;;;17.60;99.90;;;;;;4347765;28;657172;-73
2022/10/05 12:18:08;;;;;;;4.33;2.87;;;17.10;99.90;;;;;;4337558;28;656502;-73
2022/10/05 12:20:57;;;;;;;5.83;3.30;;;17.40;99.90;;;;;;4354638;28;656241;-72
2022/10/05 12:23:47;;;;;;;6.23;2.83;;;17.50;99.90;;;;;;4369673;28;656645;-72
2022/10/05 12:26:36;;;;;;;5.73;3.50;;;17.60;99.90;;;;;;4367958;28;657292;-73
2022/10/05 12:29:25;;;;;;;5.90;3.30;;;17.70;99.90;;;;;;4344178;28;657683;-72
2022/10/05 12:32:16;;;;;;;5.87;2.77;;;18.20;99.90;;;;;;4347763;28;657663;-72
2022/10/05 12:35:06;;;;;;;7.93;2.97;;;18.60;99.90;;;;;;4342473;28;656835;-72
2022/10/05 12:37:54;;;;;;;6.30;2.60;;;18.70;99.90;;;;;;4344993;28;657120;-73
2022/10/05 12:40:45;;;;;;;5.37;2.60;;;18.30;99.90;;;;;;4349362;28;656241;-72
2022/10/05 12:43:36;;;;;;;9.93;2.90;;;18.30;99.90;;;;;;4346856;28;658176;-71
2022/10/05 12:46:27;;;;;;;4.73;2.67;;;18.70;99.90;;;;;;4344858;28;657548;-71
2022/10/05 12:49:26;;;;;;;3.17;2.40;;;18.70;99.90;;;;;;4343359;28;656428;-73
2022/10/05 12:52:20;;;;;;;5.30;2.60;;;18.00;99.90;;;;;;4348637;28;657058;-71
2022/10/05 12:55:10;;;;;;;4.77;2.10;;;18.00;99.90;;;;;;4324534;28;657319;-71
2022/10/05 12:58:04;;;;;;;7.07;2.47;;;17.70;99.90;;;;;;4348789;28;657923;-71
2022/10/05 13:00:56;;;;;;;4.27;2.10;;;17.70;99.90;;;;;;4346057;28;656366;-71
2022/10/05 13:03:44;;;;;;;6.87;2.90;;;18.00;99.90;;;;;;4339010;28;656599;-71
2022/10/05 13:06:37;;;;;;;5.87;2.60;;;18.20;99.90;;;;;;4347568;28;656804;-71
2022/10/05 13:09:28;;;;;;;3.47;2.43;;;17.80;99.90;;;;;;4342750;28;656419;-72
2022/10/05 13:12:19;;;;;;;8.30;2.60;;;17.70;99.90;;;;;;4347633;28;656588;-72
2022/10/05 13:15:10;;;;;;;4.73;2.13;;;17.50;99.90;;;;;;4341807;28;656500;-72
2022/10/05 13:18:04;;;;;;;5.03;2.80;;;17.30;99.90;;;;;;4341435;28;656970;-72
2022/10/05 13:20:55;;;;;;;9.00;2.70;;;17.60;99.90;;;;;;4340621;28;656536;-72
2022/10/05 13:23:49;;;;;;;5.37;2.80;;;17.60;99.90;;;;;;4339232;28;657014;-72
2022/10/05 13:26:38;;;;;;;5.63;2.47;;;17.30;99.90;;;;;;4348103;28;657268;-72
2022/10/05 13:29:28;;;;;;;7.47;2.60;;;17.30;99.90;;;;;;4348330;28;656604;-72
2022/10/05 13:32:18;;;;;;;4.83;2.60;;;17.20;99.90;;;;;;4347646;28;656580;-72
2022/10/05 13:35:17;;;;;;;5.23;2.80;;;17.30;99.90;;;;;;4361014;28;656489;-72
2022/10/05 13:38:07;;;;;;;5.57;2.80;;;17.20;99.90;;;;;;4348816;28;656648;-72
2022/10/05 13:41:02;;;;;;;5.77;2.80;;;17.10;99.90;;;;;;4344642;28;657222;-72
2022/10/05 13:43:53;;;;;;;4.77;2.60;;;16.90;99.90;;;;;;4344586;28;656877;-72
2022/10/05 13:46:43;;;;;;;6.43;2.70;;;16.70;99.90;;;;;;4325866;28;657334;-72
2022/10/05 13:49:35;;;;;;;7.03;2.77;;;16.40;99.90;;;;;;4342324;28;657008;-72
2022/10/05 13:52:29;;;;;;;3.87;2.50;;;16.40;99.90;;;;;;4346507;28;656704;-72
2022/10/05 13:55:26;;;;;;;6.97;2.60;;;16.50;99.90;;;;;;4326219;28;657213;-72
2022/10/05 13:58:22;;;;;;;6.87;2.53;;;16.90;99.90;;;;;;4354375;28;656991;-72
2022/10/05 14:01:14;;;;;;;3.90;2.50;;;17.70;99.90;;;;;;4351467;28;657205;-72
2022/10/05 14:04:06;;;;;;;6.67;2.63;;;18.10;99.90;;;;;;4352606;28;657096;-71
2022/10/05 14:06:53;;;;;;;4.00;2.40;;;18.70;99.90;;;;;;4345147;28;656949;-71
2022/10/05 14:09:41;;;;;;;5.03;2.30;;;19.40;99.90;;;;;;4351941;28;656853;-72
2022/10/05 14:12:28;;;;;;;6.67;2.60;;;20.10;99.90;;;;;;4372853;28;657014;-71
2022/10/05 14:15:21;;;;;;;3.90;2.40;;;21.20;96.60;;;;;;4351758;28;658898;-72
2022/10/05 14:18:23;;;;;;;3.20;2.47;;;22.10;94.10;;;;;;4343676;28;656911;-72
2022/10/05 14:21:18;;;;;;;5.00;2.60;;;22.20;85.90;;;;;;4332656;28;656918;-72
2022/10/05 14:24:18;;;;;;;6.43;2.70;;;21.30;88.70;;;;;;4327102;28;657151;-72
2022/10/05 14:27:18;;;;;;;9.30;3.17;;;20.60;90.90;;;;;;4340710;28;657192;-72
2022/10/05 14:30:18;;;;;;;5.43;2.70;;;19.70;92.60;;;;;;4326682;28;656429;-72
2022/10/05 14:33:15;;;;;;;6.30;2.87;;;19.70;94.90;;;;;;4355286;28;656816;-73
2022/10/05 14:36:02;;;;;;;5.27;2.77;;;19.40;94.80;;;;;;4332404;28;657025;-73
2022/10/05 14:38:52;;;;;;;7.63;2.67;;;19.20;96.30;;;;;;4369617;28;657584;-72
2022/10/05 14:41:45;;;;;;;7.90;3.00;;;18.90;97.10;;;;;;4346749;28;658495;-72
2022/10/05 14:44:32;;;;;;;4.80;2.77;;;19.10;96.80;;;;;;4346223;28;656957;-72
2022/10/05 14:47:22;;;;;;;7.23;3.03;;;19.00;98.20;;;;;;4375605;28;656115;-73
2022/10/05 14:50:16;;;;;;;5.43;3.00;;;18.90;97.80;;;;;;4347877;28;655943;-73
2022/10/05 14:53:09;;;;;;;7.23;3.33;;;18.50;99.10;;;;;;4348120;28;656413;-72
2022/10/05 14:56:01;;;;;;;7.70;3.05;;;18.10;99.90;;;;;;4340489;28;657208;-73